Renderfarm Status:OK
Avg Time Per Frame:79.3 min/frame
Total Users Today:15
Total CPU Time Today:1978.96 Hours
Total Frames Waiting:133
Today's CPU Champion:mlisto20 / 16 days 16 hr
Active Jobs
Job User Frames Renderer Total CPU Average Start End Status
47239 shuang23 50 arnold 0 Hours 0 min 06/28 09:32 PM Rendering
47235 botili20 100 arnold 62.91 Hours 47.8 min 06/28 08:40 PM Rendering
47232 weinhu20 9 houdini 0 Hours 0 min 06/28 07:47 PM Ready
47227 mengli25 9 houdini 0 Hours 0 min 06/28 02:53 PM Ready
47226 sowong20 100 rman 63.84 Hours 41.2 min 06/28 02:53 PM Rendering
47225 yuchen24 9 houdini 0 Hours 0 min 06/28 02:34 PM Ready
47222 siyniu20 9 houdini 0 Hours 0 min 06/28 12:15 PM Rendering
47219 rclark26 100 arnold 246.82 Hours 152.7 min 06/28 07:48 AM Rendering
47218 pwongb20 9 houdini 0 Hours 0 min 06/28 07:02 AM Rendering
47217 xuwang20 9 houdini 30.32 Hours 303.2 min 06/28 02:33 AM Rendering
47000 yiclee20 100 mayatomr 0 Hours 0 min 06/23 12:07 AM Ready
Completed Jobs
Job User Frames Renderer Total CPU Average Start End Speedup Status
47238 dpress20 20 arnold 0.07 Hours 0.2 min 06/28 09:31 PM 06/28 09:31 PM 6.4x Complete!
47237 dpress20 20 arnold 0.06 Hours 0.2 min 06/28 09:28 PM 06/28 09:29 PM 9x Complete!
47236 dpress20 24 arnold 0.09 Hours 0.2 min 06/28 09:20 PM 06/28 09:21 PM 7.7x Complete!
47234 spaday20 100 arnold 20.04 Hours 12 min 06/28 08:21 PM 06/28 08:51 PM 40.4x Complete!
47233 shuang23 3 arnold 3.02 Hours 60.3 min 06/28 08:03 PM 06/28 09:06 PM 2.8x Complete!
47231 botili20 50 arnold 46.71 Hours 56.1 min 06/28 04:46 PM 06/28 06:28 PM 27.4x Complete!
47230 shuang23 71 arnold 106.06 Hours 89.6 min 06/28 04:03 PM 06/28 06:19 PM 46.5x Complete!
47229 garnol21 100 houdini 69.56 Hours 41.7 min 06/28 04:01 PM 06/28 05:46 PM 40.1x Complete!
47228 botili20 100 arnold 109.03 Hours 65.4 min 06/28 03:01 PM 06/28 04:45 PM 62.7x Complete!
47224 garnol21 100 houdini 77.71 Hours 46.6 min 06/28 01:25 PM 06/28 03:38 PM 34.9x Complete!
47223 garnol21 100 houdini 0 Hours 0 min 06/28 01:17 PM 06/28 01:17 PM 0x Complete!
47221 shuang23 100 arnold 139.79 Hours 83.9 min 06/28 12:02 PM 06/28 03:47 PM 37.3x Complete!
47220 mlisto20 100 arnold 400.5 Hours 240.3 min 06/28 11:34 AM 06/28 07:58 PM 47.7x Complete!
47216 botili20 100 arnold 139.15 Hours 83.5 min 06/28 01:24 AM 06/28 03:30 AM 66.4x Complete!
47215 shuang23 100 arnold 84.71 Hours 50.8 min 06/28 01:20 AM 06/28 02:33 AM 68.7x Complete!
47214 souell20 32 houdini 6.11 Hours 11.5 min 06/28 12:25 AM 06/28 12:55 AM 12.2x Complete!
47213 spaday20 100 arnold 31.1 Hours 18.7 min 06/28 12:07 AM 06/28 12:39 AM 58.5x Complete!
47212 mmckin22 1 rman 0.82 Hours 48.9 min 06/27 11:12 PM 06/28 01:54 AM 0.3x Complete!
47211 spaday20 100 arnold 24.05 Hours 14.4 min 06/27 10:37 PM 06/27 11:11 PM 41.5x Complete!
47210 botili20 100 arnold 129.42 Hours 77.7 min 06/27 09:59 PM 06/27 11:54 PM 67.4x Complete!
47209 shuang23 100 arnold 129.9 Hours 77.9 min 06/27 09:58 PM 06/28 12:24 AM 53.2x Complete!
47208 weinhu20 9 houdini 55.17 Hours 367.8 min 06/27 08:59 PM 06/28 07:11 PM 2.5x Complete!
47207 yuchen24 9 houdini 36.54 Hours 243.6 min 06/27 08:58 PM 06/28 02:00 PM 2.1x Complete!
47206 mengli25 9 houdini 57.78 Hours 385.2 min 06/27 08:54 PM 06/28 02:51 PM 3.2x Complete!
47205 siyniu20 9 houdini 49.65 Hours 331 min 06/27 08:52 PM 06/28 08:44 AM 4.2x Complete!
47204 pwongb20 10 houdini 11.45 Hours 68.7 min 06/27 08:51 PM 06/28 03:52 AM 1.6x Complete!
47203 spaday20 100 arnold 31.72 Hours 19 min 06/27 08:27 PM 06/27 09:01 PM 54.9x Complete!
47202 botili20 100 arnold 118.6 Hours 71.2 min 06/27 07:30 PM 06/27 09:42 PM 53.6x Complete!
47201 spaday20 100 arnold 33.5 Hours 20.1 min 06/27 07:28 PM 06/27 08:05 PM 55.6x Complete!
47200 shuang23 100 arnold 142.49 Hours 85.5 min 06/27 07:27 PM 06/27 09:53 PM 58.5x Complete!
47199 botili20 100 arnold 0.43 Hours 0.3 min 06/27 07:20 PM 06/27 07:27 PM 3.4x Complete!
47198 rclark26 100 arnold 230.71 Hours 138.4 min 06/27 07:17 PM 06/28 04:09 AM 26x Complete!
47197 xuwang20 10 houdini 12.05 Hours 72.3 min 06/27 07:15 PM 06/27 08:52 PM 7.5x Complete!
47196 spaday20 100 arnold 16.31 Hours 9.8 min 06/27 07:09 PM 06/27 07:26 PM 56.2x Complete!
47195 shuang23 100 arnold 0.02 Hours 0 min 06/27 07:05 PM 06/27 07:26 PM 0x Complete!
47194 dixiao20 80 arnold 8.22 Hours 6.2 min 06/27 06:17 PM 06/27 06:26 PM 54.5x Complete!
47193 dixiao20 80 arnold 3.9 Hours 2.9 min 06/27 06:03 PM 06/27 06:07 PM 54.2x Complete!
47192 spaday20 100 arnold 15.87 Hours 9.5 min 06/27 05:57 PM 06/27 06:13 PM 56.1x Complete!
47191 dixiao20 10 arnold 0.44 Hours 2.7 min 06/27 05:55 PM 06/27 05:59 PM 6.5x Complete!
47190 dixiao20 10 arnold 0 Hours 0 min 06/27 05:52 PM 06/27 05:55 PM 0x Complete!
47189 dixiao20 3 arnold 0.12 Hours 2.5 min 06/27 05:47 PM 06/27 05:50 PM 2.2x Complete!
47188 dixiao20 10 arnold 0.44 Hours 2.6 min 06/27 05:38 PM 06/27 05:42 PM 6.4x Complete!
47187 pwongb20 10 houdini 22.64 Hours 135.8 min 06/27 05:21 PM 06/27 08:49 PM 6.5x Complete!
47186 xuwang20 10 houdini 22.71 Hours 136.2 min 06/27 11:12 AM 06/27 07:13 PM 2.8x Complete!
47185 mengli25 9 houdini 0 Hours 0 min 06/27 10:44 AM 06/27 11:18 AM 0x Complete!
47184 pwongb20 10 houdini 12.38 Hours 74.3 min 06/27 10:42 AM 06/27 05:18 PM 1.9x Complete!
47183 xuwang20 10 houdini 0 Hours 0 min 06/27 08:26 AM 06/27 11:11 AM 0x Complete!
47182 rclark26 100 arnold 199.65 Hours 119.8 min 06/27 07:41 AM 06/27 04:52 PM 21.8x Complete!
47181 yawang24 6 arnold 4.82 Hours 48.2 min 06/27 07:26 AM 06/27 08:33 AM 4.3x Complete!
47180 yuchen24 9 houdini 10.56 Hours 70.4 min 06/27 07:07 AM 06/27 12:40 PM 1.9x Complete!
Copyright 2014 Savannah College of Art and Design